createdAt,value
2019-01-30T00:02:08.964Z,3.87
2019-01-30T00:04:39.678Z,3.50
2019-01-30T00:07:10.289Z,4.77
2019-01-30T00:09:40.579Z,3.73
2019-01-30T00:12:11.861Z,3.57
2019-01-30T00:14:42.800Z,3.60
2019-01-30T00:17:13.319Z,4.00
2019-01-30T00:19:43.592Z,4.93
2019-01-30T00:22:13.867Z,4.60
2019-01-30T00:24:44.478Z,5.03
2019-01-30T00:27:14.958Z,4.63
2019-01-30T00:29:45.193Z,3.40
2019-01-30T00:32:15.477Z,4.10
2019-01-30T00:34:45.644Z,4.47
2019-01-30T00:37:16.524Z,4.27
2019-01-30T00:39:48.707Z,4.57
2019-01-30T00:42:19.801Z,4.33
2019-01-30T00:44:50.330Z,4.13
2019-01-30T00:47:20.526Z,4.70
2019-01-30T00:49:51.043Z,4.83
2019-01-30T00:52:21.350Z,4.93
2019-01-30T00:54:52.036Z,4.20
2019-01-30T00:57:22.611Z,4.07
2019-01-30T00:59:53.154Z,3.70
2019-01-30T01:02:23.511Z,6.40
2019-01-30T01:04:54.009Z,4.63
2019-01-30T01:07:24.320Z,4.97
2019-01-30T01:09:54.928Z,4.10
2019-01-30T01:12:25.181Z,4.13
2019-01-30T01:14:55.713Z,5.67
2019-01-30T01:17:26.358Z,5.80
2019-01-30T01:19:56.872Z,4.57
2019-01-30T01:22:27.090Z,4.70
2019-01-30T01:24:57.352Z,4.83
2019-01-30T01:27:27.573Z,4.03
2019-01-30T01:29:57.792Z,4.80
2019-01-30T01:32:28.396Z,5.20
2019-01-30T01:34:59.024Z,4.13
2019-01-30T01:37:29.273Z,5.75
2019-01-30T01:40:00.229Z,4.20
2019-01-30T01:42:30.497Z,4.00
2019-01-30T01:45:01.797Z,4.83
2019-01-30T01:47:32.380Z,4.63
2019-01-30T01:50:03.437Z,5.07
2019-01-30T01:52:33.966Z,5.57
2019-01-30T01:55:06.049Z,4.40
2019-01-30T01:57:36.969Z,4.43
2019-01-30T02:00:35.207Z,4.47
2019-01-30T02:03:00.527Z,4.63
2019-01-30T02:05:30.734Z,4.97
2019-01-30T02:08:01.617Z,4.67
2019-01-30T02:10:32.149Z,4.60
2019-01-30T02:13:02.810Z,4.37
2019-01-30T02:15:33.406Z,4.80
2019-01-30T02:18:03.938Z,5.87
2019-01-30T02:20:35.211Z,4.10
2019-01-30T02:23:05.806Z,4.27
2019-01-30T02:25:36.063Z,4.40
2019-01-30T02:28:06.340Z,5.43
2019-01-30T02:30:47.088Z,4.20
2019-01-30T02:33:09.061Z,4.93
2019-01-30T02:35:39.279Z,4.23
2019-01-30T02:38:09.813Z,4.97
2019-01-30T02:40:40.029Z,4.67
2019-01-30T02:43:10.295Z,4.33
2019-01-30T02:45:40.579Z,5.20
2019-01-30T02:48:11.219Z,4.87
2019-01-30T02:50:41.428Z,4.67
2019-01-30T02:53:12.956Z,5.73
2019-01-30T02:55:44.032Z,5.00
2019-01-30T02:58:15.794Z,5.73
2019-01-30T03:00:59.375Z,4.53
2019-01-30T03:03:26.516Z,5.87
2019-01-30T03:06:00.455Z,5.37
2019-01-30T03:08:31.241Z,4.97
2019-01-30T03:11:01.429Z,5.13
2019-01-30T03:13:31.636Z,4.43
2019-01-30T03:19:37.074Z,4.87
2019-01-30T03:22:07.603Z,4.40
2019-01-30T03:24:39.815Z,5.37
2019-01-30T03:27:18.086Z,5.17
2019-01-30T03:29:50.297Z,4.17
2019-01-30T03:32:20.604Z,4.47
2019-01-30T03:34:53.202Z,4.50
2019-01-30T03:37:25.633Z,4.57
2019-01-30T03:39:56.221Z,3.37
2019-01-30T03:42:26.549Z,4.58
2019-01-30T03:44:57.078Z,4.70
2019-01-30T03:47:28.661Z,3.90
2019-01-30T03:49:58.929Z,4.13
2019-01-30T03:52:29.103Z,5.78
2019-01-30T03:54:59.485Z,2.83
2019-01-30T03:57:29.664Z,2.83
2019-01-30T04:00:00.403Z,3.13
2019-01-30T04:02:30.742Z,3.57
2019-01-30T04:05:02.541Z,2.80
2019-01-30T04:07:33.928Z,3.80
2019-01-30T04:10:05.747Z,4.07
2019-01-30T04:12:36.002Z,3.00
2019-01-30T04:15:07.056Z,3.10
2019-01-30T04:17:37.542Z,3.27
2019-01-30T04:20:09.405Z,3.23
2019-01-30T04:22:39.884Z,2.93
2019-01-30T04:25:10.529Z,3.03
2019-01-30T04:27:40.708Z,3.57
2019-01-30T04:30:17.157Z,3.93
2019-01-30T04:32:48.191Z,2.63
2019-01-30T04:35:18.714Z,3.80
2019-01-30T04:37:49.260Z,3.00
2019-01-30T04:40:20.912Z,2.57
2019-01-30T04:42:51.853Z,3.10
2019-01-30T04:45:24.244Z,3.43
2019-01-30T04:47:54.580Z,2.57
2019-01-30T04:50:25.890Z,2.40
2019-01-30T04:52:56.890Z,2.50
2019-01-30T04:55:27.526Z,2.73
2019-01-30T04:57:58.348Z,3.17
2019-01-30T05:00:29.673Z,2.63
2019-01-30T05:02:59.851Z,2.00
2019-01-30T05:05:30.135Z,1.10
2019-01-30T05:08:00.398Z,1.83
2019-01-30T05:10:30.672Z,1.30
2019-01-30T05:13:00.948Z,1.30
2019-01-30T05:15:31.498Z,1.40
2019-01-30T05:18:02.015Z,1.20
2019-01-30T05:20:32.453Z,1.37
2019-01-30T05:23:02.671Z,1.40
2019-01-30T05:25:32.930Z,1.47
2019-01-30T05:28:03.515Z,1.53
2019-01-30T05:30:34.111Z,1.30
2019-01-30T05:33:04.702Z,1.23
2019-01-30T05:35:34.869Z,1.80
2019-01-30T05:38:05.445Z,2.77
2019-01-30T05:40:35.971Z,1.40
2019-01-30T05:43:06.190Z,1.00
2019-01-30T05:45:36.450Z,0.60
2019-01-30T05:48:06.729Z,0.60
2019-01-30T05:50:36.992Z,0.60
2019-01-30T05:53:07.415Z,0.57
2019-01-30T05:55:37.573Z,0.50
2019-01-30T05:58:08.452Z,0.47
2019-01-30T06:00:42.188Z,0.30
2019-01-30T06:03:12.975Z,0.60
2019-01-30T06:05:43.346Z,1.07
2019-01-30T06:08:13.628Z,0.30
2019-01-30T06:10:44.176Z,0.30
2019-01-30T06:13:15.011Z,0.40
2019-01-30T06:15:45.546Z,0.30
2019-01-30T06:18:16.873Z,0.40
2019-01-30T06:20:47.029Z,0.23
2019-01-30T06:23:17.539Z,0.70
2019-01-30T06:25:48.072Z,0.30
2019-01-30T06:28:18.275Z,0.30
2019-01-30T06:30:48.830Z,0.20
2019-01-30T06:33:19.029Z,0.30
2019-01-30T06:35:49.286Z,0.30
2019-01-30T06:38:20.202Z,0.10
2019-01-30T06:40:52.475Z,0.20
2019-01-30T06:43:23.709Z,0.10
2019-01-30T06:45:54.138Z,1.10
2019-01-30T06:48:24.678Z,0.20
2019-01-30T06:50:55.408Z,0.20
2019-01-30T06:53:25.998Z,0.20
2019-01-30T06:55:56.850Z,0.20
2019-01-30T06:58:27.567Z,0.30
2019-01-30T07:00:58.145Z,0.30
2019-01-30T07:03:28.550Z,0.37
2019-01-30T07:05:59.105Z,0.20
2019-01-30T07:08:29.732Z,0.27
2019-01-30T07:11:10.097Z,0.30
2019-01-30T07:13:32.219Z,0.30
2019-01-30T07:16:02.482Z,0.20
2019-01-30T07:18:33.398Z,0.20
2019-01-30T07:21:03.646Z,0.20
2019-01-30T07:23:33.942Z,0.40
2019-01-30T07:26:04.199Z,0.30
2019-01-30T07:28:35.470Z,0.45
2019-01-30T07:31:05.758Z,1.17
2019-01-30T07:33:36.770Z,0.30
2019-01-30T07:36:06.948Z,0.90
2019-01-30T07:38:37.795Z,0.20
2019-01-30T07:41:07.987Z,0.60
2019-01-30T07:43:38.589Z,0.20
2019-01-30T07:46:08.864Z,0.30
2019-01-30T07:48:39.125Z,0.20
2019-01-30T07:51:09.798Z,0.50
2019-01-30T07:53:40.417Z,0.40
2019-01-30T07:56:10.922Z,0.30
2019-01-30T07:58:41.760Z,0.40
2019-01-30T08:01:12.018Z,0.40
2019-01-30T08:03:42.920Z,0.30
2019-01-30T08:06:13.549Z,0.30
2019-01-30T08:08:43.877Z,0.37
2019-01-30T08:11:14.598Z,0.33
2019-01-30T08:13:44.858Z,0.20
2019-01-30T08:16:15.080Z,1.37
2019-01-30T08:18:45.357Z,0.30
2019-01-30T08:21:15.664Z,0.30
2019-01-30T08:23:45.845Z,0.40
2019-01-30T08:26:16.480Z,1.43
2019-01-30T08:28:46.993Z,0.30
2019-01-30T08:31:17.644Z,0.30
2019-01-30T08:33:47.867Z,0.30
2019-01-30T08:36:18.160Z,0.40
2019-01-30T08:38:49.800Z,0.17
2019-01-30T08:41:20.025Z,0.30
2019-01-30T08:43:50.777Z,0.37
2019-01-30T08:46:20.980Z,0.20
2019-01-30T08:48:51.251Z,0.30
2019-01-30T08:51:21.540Z,0.20
2019-01-30T08:53:51.793Z,0.40
2019-01-30T08:56:23.112Z,0.33
2019-01-30T08:58:53.277Z,0.50
2019-01-30T09:01:25.278Z,0.40
2019-01-30T09:03:56.588Z,0.40
2019-01-30T09:06:26.941Z,0.40
2019-01-30T09:08:57.510Z,0.27
2019-01-30T09:11:27.845Z,0.10
2019-01-30T09:13:58.079Z,0.23
2019-01-30T09:16:28.788Z,0.40
2019-01-30T09:19:00.442Z,0.30
2019-01-30T09:21:31.076Z,0.30
2019-01-30T09:24:01.612Z,0.50
2019-01-30T09:26:32.931Z,0.30
2019-01-30T09:29:03.552Z,0.40
2019-01-30T09:31:33.792Z,0.30
2019-01-30T09:34:04.474Z,0.43
2019-01-30T09:36:34.990Z,0.30
2019-01-30T09:39:09.065Z,0.27
2019-01-30T09:41:39.617Z,0.20
2019-01-30T09:44:09.886Z,0.27
2019-01-30T09:46:40.384Z,1.27
2019-01-30T09:49:11.143Z,0.50
2019-01-30T09:51:42.339Z,0.20
2019-01-30T09:54:13.086Z,0.40
2019-01-30T09:56:44.008Z,0.40
2019-01-30T09:59:14.556Z,0.40
2019-01-30T10:01:44.751Z,0.30
2019-01-30T10:04:15.405Z,0.40
2019-01-30T10:06:47.063Z,0.50
2019-01-30T10:09:17.375Z,1.13
2019-01-30T10:11:47.913Z,0.20
2019-01-30T10:14:18.186Z,0.53
2019-01-30T10:16:48.779Z,0.50
2019-01-30T10:19:19.405Z,0.20
2019-01-30T10:21:50.027Z,1.17
2019-01-30T10:24:20.970Z,0.30
2019-01-30T10:26:51.194Z,0.30
2019-01-30T10:29:21.534Z,0.37
2019-01-30T10:31:53.299Z,0.33
2019-01-30T10:34:24.642Z,0.50
2019-01-30T10:36:55.267Z,0.53
2019-01-30T10:39:25.914Z,0.37
2019-01-30T10:41:56.205Z,0.53
2019-01-30T10:44:26.498Z,0.30
2019-01-30T10:46:57.076Z,0.30
2019-01-30T10:49:27.339Z,0.60
2019-01-30T10:51:58.237Z,0.47
2019-01-30T10:54:28.861Z,0.40
2019-01-30T10:56:59.504Z,0.37
2019-01-30T10:59:29.770Z,0.70
2019-01-30T11:02:00.027Z,0.37
2019-01-30T11:04:30.325Z,0.50
2019-01-30T11:07:00.838Z,0.30
2019-01-30T11:09:31.476Z,0.40
2019-01-30T11:12:02.388Z,0.40
2019-01-30T11:14:32.636Z,0.40
2019-01-30T11:17:03.286Z,0.93
2019-01-30T11:19:33.478Z,0.47
2019-01-30T11:22:08.049Z,0.30
2019-01-30T11:24:38.329Z,0.77
2019-01-30T11:27:08.650Z,0.70
2019-01-30T11:29:38.912Z,0.77
2019-01-30T11:32:09.160Z,0.60
2019-01-30T11:34:39.417Z,0.63
2019-01-30T11:37:15.185Z,0.70
2019-01-30T11:39:48.475Z,0.40
2019-01-30T11:42:19.166Z,1.27
2019-01-30T11:44:49.453Z,0.50
2019-01-30T11:47:19.731Z,0.47
2019-01-30T11:49:50.012Z,1.13
2019-01-30T11:52:20.960Z,0.40
2019-01-30T11:54:51.740Z,0.30
2019-01-30T11:57:22.341Z,0.60
2019-01-30T11:59:52.941Z,0.50
2019-01-30T12:02:23.611Z,0.50
2019-01-30T12:04:54.151Z,1.37
2019-01-30T12:07:25.075Z,0.40
2019-01-30T12:09:55.930Z,1.57
2019-01-30T12:12:26.509Z,0.50
2019-01-30T12:14:56.705Z,0.30
2019-01-30T12:17:27.356Z,0.60
2019-01-30T12:19:58.018Z,0.60
2019-01-30T12:22:28.666Z,0.73
2019-01-30T12:24:59.525Z,0.60
2019-01-30T12:27:30.187Z,0.47
2019-01-30T12:30:01.055Z,2.30
2019-01-30T12:32:32.770Z,0.50
2019-01-30T12:35:03.021Z,0.50
2019-01-30T12:37:33.685Z,0.70
2019-01-30T12:40:05.032Z,0.50
2019-01-30T12:42:35.626Z,0.93
2019-01-30T12:45:07.814Z,0.40
2019-01-30T12:47:38.107Z,0.70
2019-01-30T12:50:08.964Z,1.40
2019-01-30T12:52:39.536Z,0.50
2019-01-30T12:55:30.478Z,0.60
2019-01-30T12:58:01.332Z,0.60
2019-01-30T13:00:53.356Z,0.63
2019-01-30T13:03:23.621Z,0.50
2019-01-30T13:05:53.814Z,1.13
2019-01-30T13:08:24.401Z,1.40
2019-01-30T13:10:55.260Z,0.90
2019-01-30T13:13:25.850Z,0.40
2019-01-30T13:15:56.188Z,2.30
2019-01-30T13:18:26.704Z,0.60
2019-01-30T13:20:57.409Z,0.50
2019-01-30T13:23:27.994Z,1.80
2019-01-30T13:25:58.694Z,1.93
2019-01-30T13:28:28.913Z,1.13
2019-01-30T13:30:59.195Z,1.13
2019-01-30T13:33:29.817Z,1.37
2019-01-30T13:36:00.058Z,1.67
2019-01-30T13:38:30.666Z,2.20
2019-01-30T13:41:01.339Z,1.53
2019-01-30T13:43:31.867Z,0.90
2019-01-30T13:46:05.393Z,1.00
2019-01-30T13:48:35.508Z,0.70
2019-01-30T13:51:05.835Z,2.57
2019-01-30T13:53:37.260Z,1.20
2019-01-30T13:56:07.737Z,1.53
2019-01-30T13:58:38.348Z,1.17
2019-01-30T14:01:17.232Z,0.50
2019-01-30T14:03:42.742Z,1.03
2019-01-30T14:06:13.405Z,1.30
2019-01-30T14:08:43.761Z,1.97
2019-01-30T14:11:14.041Z,2.23
2019-01-30T14:13:44.310Z,1.53
2019-01-30T14:16:14.692Z,2.20
2019-01-30T14:18:45.558Z,1.53
2019-01-30T14:21:16.339Z,2.80
2019-01-30T14:23:46.926Z,2.83
2019-01-30T14:26:19.114Z,1.10
2019-01-30T14:28:50.412Z,1.33
2019-01-30T14:31:20.620Z,2.00
2019-01-30T14:33:50.866Z,0.50
2019-01-30T14:36:21.171Z,1.22
2019-01-30T14:38:51.810Z,0.53
2019-01-30T14:41:39.901Z,1.07
2019-01-30T14:44:11.028Z,1.37
2019-01-30T14:46:41.573Z,3.53
2019-01-30T14:49:12.182Z,0.67
2019-01-30T14:51:42.515Z,0.60
2019-01-30T14:54:13.691Z,1.07
2019-01-30T14:56:44.242Z,0.60
2019-01-30T14:59:15.937Z,1.80
2019-01-30T15:01:47.993Z,1.00
2019-01-30T15:04:18.199Z,0.60
2019-01-30T15:06:48.585Z,0.73
2019-01-30T15:09:19.408Z,2.50
2019-01-30T15:11:50.071Z,0.40
2019-01-30T15:14:20.219Z,0.70
2019-01-30T15:16:50.751Z,2.30
2019-01-30T15:19:20.978Z,1.00
2019-01-30T15:21:51.939Z,2.83
2019-01-30T15:24:22.102Z,0.83
2019-01-30T15:26:53.930Z,1.33
2019-01-30T15:29:24.238Z,0.87
2019-01-30T15:31:54.968Z,0.87
2019-01-30T15:34:25.915Z,1.63
2019-01-30T15:36:56.509Z,0.70
2019-01-30T15:39:26.936Z,1.17
2019-01-30T15:41:57.178Z,1.20
2019-01-30T15:44:27.928Z,1.70
2019-01-30T15:46:58.461Z,0.80
2019-01-30T15:49:29.155Z,1.73
2019-01-30T15:52:00.399Z,1.67
2019-01-30T15:54:31.070Z,0.70
2019-01-30T15:57:01.746Z,1.47
2019-01-30T15:59:32.273Z,2.10
2019-01-30T16:02:02.762Z,1.70
2019-01-30T16:04:33.005Z,1.93
2019-01-30T16:07:03.990Z,0.85
2019-01-30T16:09:35.159Z,0.40
2019-01-30T16:12:05.805Z,1.50
2019-01-30T16:14:36.038Z,1.60
2019-01-30T16:17:08.221Z,0.93
2019-01-30T16:19:39.151Z,0.80
2019-01-30T16:22:12.013Z,1.50
2019-01-30T16:24:44.910Z,1.13
2019-01-30T16:27:16.423Z,1.20
2019-01-30T16:29:47.354Z,1.67
2019-01-30T16:32:19.153Z,1.30
2019-01-30T16:34:50.016Z,1.57
2019-01-30T16:37:20.366Z,1.10
2019-01-30T16:39:50.876Z,2.43
2019-01-30T16:42:21.294Z,2.97
2019-01-30T16:44:52.413Z,1.70
2019-01-30T16:47:22.928Z,1.53
2019-01-30T16:49:53.558Z,1.63
2019-01-30T16:52:24.883Z,1.57
2019-01-30T16:54:55.728Z,1.47
2019-01-30T16:57:25.943Z,1.60
2019-01-30T16:59:58.260Z,3.70
2019-01-30T17:02:29.777Z,1.60
2019-01-30T17:05:02.099Z,1.40
2019-01-30T17:07:32.620Z,2.13
2019-01-30T17:10:04.798Z,2.43
2019-01-30T17:12:37.345Z,1.30
2019-01-30T17:15:13.257Z,1.80
2019-01-30T17:17:44.037Z,2.83
2019-01-30T17:20:28.650Z,2.63
2019-01-30T17:23:00.340Z,1.30
2019-01-30T17:25:31.281Z,2.87
2019-01-30T17:28:01.935Z,1.93
2019-01-30T17:30:41.362Z,1.25
2019-01-30T17:33:12.018Z,1.23
2019-01-30T17:35:43.338Z,2.37
2019-01-30T17:38:14.005Z,2.57
2019-01-30T17:41:06.590Z,1.63
2019-01-30T17:43:38.058Z,2.57
2019-01-30T17:46:08.879Z,1.70
2019-01-30T17:48:39.968Z,14.07
2019-01-30T17:51:31.689Z,10.50
2019-01-30T17:54:02.884Z,9.90
2019-01-30T17:56:35.569Z,4.77
2019-01-30T17:59:06.168Z,11.10
2019-01-30T18:01:38.195Z,6.90
2019-01-30T18:04:09.444Z,30.53
2019-01-30T18:06:40.906Z,8.70
2019-01-30T18:09:12.368Z,6.57
2019-01-30T18:11:43.319Z,5.20
2019-01-30T18:14:15.176Z,3.37
2019-01-30T18:16:47.107Z,1.87
2019-01-30T18:19:20.838Z,1.93
2019-01-30T18:21:53.234Z,2.30
2019-01-30T18:24:26.388Z,1.43
2019-01-30T18:27:00.085Z,3.30
2019-01-30T18:29:33.119Z,6.83
2019-01-30T18:32:09.099Z,4.83
2019-01-30T18:34:43.158Z,4.67
2019-01-30T18:37:16.740Z,3.60
2019-01-30T18:39:49.818Z,2.10
2019-01-30T18:42:22.846Z,4.43
2019-01-30T18:44:56.261Z,3.17
2019-01-30T18:47:28.798Z,1.60
2019-01-30T18:50:01.647Z,1.60
2019-01-30T18:52:34.066Z,1.87
2019-01-30T18:55:08.487Z,2.77
2019-01-30T18:58:01.763Z,2.93
2019-01-30T19:00:39.314Z,2.07
2019-01-30T19:03:13.503Z,3.83
2019-01-30T19:05:44.879Z,3.70
2019-01-30T19:08:18.643Z,5.50
2019-01-30T19:10:52.588Z,6.90
2019-01-30T19:13:25.794Z,4.63
2019-01-30T19:16:18.146Z,3.93
2019-01-30T19:18:52.027Z,4.10
2019-01-30T19:21:25.235Z,2.90
2019-01-30T19:23:59.093Z,3.03
2019-01-30T19:26:32.614Z,2.20
2019-01-30T19:29:06.340Z,2.23
2019-01-30T19:31:39.489Z,1.90
2019-01-30T19:34:14.406Z,1.80
2019-01-30T19:36:48.217Z,2.87
2019-01-30T19:39:22.945Z,2.13
2019-01-30T19:41:57.821Z,2.00
2019-01-30T19:44:50.850Z,1.37
2019-01-30T19:47:26.223Z,1.37
2019-01-30T19:50:00.542Z,2.50
2019-01-30T19:52:35.552Z,1.20
2019-01-30T19:55:11.490Z,1.67
2019-01-30T19:57:46.903Z,1.57
2019-01-30T20:00:32.186Z,2.00
2019-01-30T20:03:07.522Z,2.50
2019-01-30T20:05:41.664Z,1.90
2019-01-30T20:08:15.946Z,1.97
2019-01-30T20:10:50.741Z,2.17
2019-01-30T20:13:24.400Z,2.30
2019-01-30T20:15:58.319Z,1.60
2019-01-30T20:18:34.591Z,2.13
2019-01-30T20:21:08.836Z,1.87
2019-01-30T20:24:01.754Z,1.87
2019-01-30T20:26:35.486Z,2.30
2019-01-30T20:29:08.608Z,2.80
2019-01-30T20:32:01.034Z,2.93
2019-01-30T20:34:35.264Z,1.93
2019-01-30T20:37:28.298Z,2.00
2019-01-30T20:40:03.243Z,1.82
2019-01-30T20:42:37.745Z,2.13
2019-01-30T20:45:16.321Z,2.23
2019-01-30T20:47:50.028Z,3.00
2019-01-30T20:50:26.010Z,2.80
2019-01-30T20:52:59.841Z,2.10
2019-01-30T20:55:33.132Z,2.50
2019-01-30T20:58:07.381Z,3.70
2019-01-30T21:00:46.398Z,3.83
2019-01-30T21:03:20.668Z,3.87
2019-01-30T21:05:55.099Z,2.97
2019-01-30T21:08:28.406Z,4.50
2019-01-30T21:11:02.087Z,3.60
2019-01-30T21:13:35.381Z,2.83
2019-01-30T21:16:08.834Z,3.53
2019-01-30T21:18:41.343Z,3.27
2019-01-30T21:21:14.694Z,11.03
2019-01-30T21:23:47.715Z,6.63
2019-01-30T21:26:20.668Z,8.33
2019-01-30T21:28:53.127Z,14.23
2019-01-30T21:31:44.819Z,8.87
2019-01-30T21:34:17.289Z,2.60
2019-01-30T21:36:50.183Z,1.30
2019-01-30T21:39:24.073Z,1.00
2019-01-30T21:41:57.589Z,3.27
2019-01-30T21:44:30.770Z,2.00
2019-01-30T21:47:03.453Z,1.73
2019-01-30T21:49:35.350Z,2.10
2019-01-30T21:52:26.769Z,1.60
2019-01-30T21:54:58.301Z,1.07
2019-01-30T21:57:30.815Z,1.63
2019-01-30T22:00:02.317Z,1.17
2019-01-30T22:02:34.689Z,2.30
2019-01-30T22:05:07.372Z,1.40
2019-01-30T22:07:37.995Z,1.20
2019-01-30T22:10:11.097Z,2.30
2019-01-30T22:12:41.718Z,1.27
2019-01-30T22:15:13.147Z,1.67
2019-01-30T22:17:43.428Z,2.33
2019-01-30T22:20:16.026Z,2.03
2019-01-30T22:22:47.575Z,1.67
2019-01-30T22:25:20.664Z,3.00
2019-01-30T22:27:51.419Z,2.33
2019-01-30T22:30:23.660Z,3.40
2019-01-30T22:32:54.182Z,1.53
2019-01-30T22:35:24.814Z,4.33
2019-01-30T22:37:55.336Z,1.47
2019-01-30T22:40:26.101Z,2.47
2019-01-30T22:42:56.295Z,2.57
2019-01-30T22:45:28.022Z,1.77
2019-01-30T22:47:58.195Z,1.83
2019-01-30T22:50:28.881Z,2.37
2019-01-30T22:52:59.132Z,2.43
2019-01-30T22:55:30.663Z,2.37
2019-01-30T22:58:01.253Z,2.43
2019-01-30T23:01:31.359Z,2.50
2019-01-30T23:04:22.837Z,1.87
2019-01-30T23:07:37.707Z,1.57
2019-01-30T23:10:54.008Z,1.70
2019-01-30T23:14:08.084Z,1.70
2019-01-30T23:17:22.138Z,2.67
2019-01-30T23:20:22.770Z,1.63
2019-01-30T23:23:37.200Z,2.60
2019-01-30T23:26:23.973Z,3.70
2019-01-30T23:29:35.496Z,4.00
2019-01-30T23:32:31.777Z,2.50
2019-01-30T23:35:31.879Z,2.70
2019-01-30T23:38:45.334Z,1.63
2019-01-30T23:41:41.527Z,3.03
2019-01-30T23:44:32.763Z,2.20
2019-01-30T23:47:51.753Z,2.63
2019-01-30T23:50:51.641Z,2.07
2019-01-30T23:54:03.454Z,3.90
2019-01-30T23:56:50.994Z,1.73
